createdAt,value
2023-04-07T00:00:20.411Z,7.40
2023-04-07T00:03:10.134Z,7.33
2023-04-07T00:05:58.479Z,7.13
2023-04-07T00:08:46.642Z,6.80
2023-04-07T00:11:34.844Z,7.03
2023-04-07T00:14:22.991Z,7.57
2023-04-07T00:17:11.102Z,6.80
2023-04-07T00:20:00.706Z,7.43
2023-04-07T00:22:49.061Z,7.50
2023-04-07T00:25:37.462Z,7.40
2023-04-07T00:28:25.773Z,7.07
2023-04-07T00:31:14.172Z,7.30
2023-04-07T00:34:02.416Z,7.07
2023-04-07T00:36:52.489Z,7.43
2023-04-07T00:39:40.821Z,8.37
2023-04-07T00:42:29.071Z,7.33
2023-04-07T00:45:17.746Z,7.93
2023-04-07T00:48:06.529Z,7.60
2023-04-07T00:50:54.884Z,7.47
2023-04-07T00:53:44.402Z,7.60
2023-04-07T00:56:33.420Z,8.40
2023-04-07T00:59:22.035Z,7.70
2023-04-07T01:02:15.698Z,8.50
2023-04-07T01:05:11.472Z,7.90
2023-04-07T01:08:05.291Z,8.90
2023-04-07T01:11:03.791Z,8.67
2023-04-07T01:13:53.796Z,8.50
2023-04-07T01:16:46.710Z,8.57
2023-04-07T01:19:38.975Z,7.93
2023-04-07T01:22:34.502Z,7.80
2023-04-07T01:25:53.958Z,8.47
2023-04-07T01:29:12.362Z,7.87
2023-04-07T01:32:04.046Z,8.37
2023-04-07T01:34:53.550Z,8.73
2023-04-07T01:37:42.286Z,8.53
2023-04-07T01:40:31.527Z,8.93
2023-04-07T01:43:20.504Z,8.93
2023-04-07T01:46:08.820Z,8.53
2023-04-07T01:48:59.098Z,9.13
2023-04-07T01:51:50.327Z,9.37
2023-04-07T01:54:39.171Z,8.73
2023-04-07T01:57:27.908Z,9.10
2023-04-07T02:00:16.443Z,8.67
2023-04-07T02:03:12.471Z,9.00
2023-04-07T02:06:08.626Z,9.47
2023-04-07T02:09:01.377Z,8.33
2023-04-07T02:11:52.109Z,7.93
2023-04-07T02:14:41.149Z,8.47
2023-04-07T02:17:30.132Z,8.10
2023-04-07T02:20:19.563Z,8.53
2023-04-07T02:23:10.655Z,8.07
2023-04-07T02:25:58.906Z,7.87
2023-04-07T02:28:46.962Z,8.63
2023-04-07T02:31:35.153Z,8.03
2023-04-07T02:34:23.265Z,7.37
2023-04-07T02:37:11.513Z,7.10
2023-04-07T02:40:01.120Z,7.50
2023-04-07T02:42:49.366Z,7.03
2023-04-07T02:45:37.483Z,6.47
2023-04-07T02:48:25.659Z,7.17
2023-04-07T02:51:13.759Z,7.50
2023-04-07T02:54:01.868Z,7.00
2023-04-07T02:56:51.733Z,7.03
2023-04-07T02:59:39.802Z,6.00
2023-04-07T03:02:28.055Z,6.57
2023-04-07T03:05:16.345Z,6.53
2023-04-07T03:08:04.479Z,6.23
2023-04-07T03:10:52.550Z,6.30
2023-04-07T03:13:42.038Z,6.37
2023-04-07T03:16:30.232Z,6.57
2023-04-07T03:19:18.307Z,6.37
2023-04-07T03:22:06.482Z,5.87
2023-04-07T03:24:54.871Z,6.10
2023-04-07T03:27:42.978Z,6.50
2023-04-07T03:30:32.410Z,6.17
2023-04-07T03:33:20.981Z,6.13
2023-04-07T03:36:10.908Z,6.17
2023-04-07T03:38:59.234Z,6.73
2023-04-07T03:41:47.473Z,6.67
2023-04-07T03:44:35.919Z,6.80
2023-04-07T03:47:25.475Z,6.90
2023-04-07T03:50:13.606Z,6.60
2023-04-07T03:53:02.084Z,6.40
2023-04-07T03:55:50.759Z,6.73
2023-04-07T03:58:44.117Z,7.40
2023-04-07T04:01:34.505Z,7.97
2023-04-07T04:04:24.674Z,7.00
2023-04-07T04:07:12.929Z,8.30
2023-04-07T04:10:01.889Z,9.73
2023-04-07T04:12:50.659Z,9.43
2023-04-07T04:15:38.813Z,8.83
2023-04-07T04:18:27.031Z,10.57
2023-04-07T04:21:16.617Z,9.93
2023-04-07T04:24:05.114Z,8.77
2023-04-07T04:26:53.516Z,8.70
2023-04-07T04:29:41.555Z,8.77
2023-04-07T04:32:29.781Z,8.97
2023-04-07T04:35:18.887Z,8.33
2023-04-07T04:38:08.571Z,8.40
2023-04-07T04:40:57.090Z,8.27
2023-04-07T04:43:45.546Z,7.87
2023-04-07T04:46:33.729Z,8.40
2023-04-07T04:49:22.242Z,7.93
2023-04-07T04:52:10.512Z,7.50
2023-04-07T04:54:59.978Z,7.80
2023-04-07T04:57:48.157Z,8.23
2023-04-07T05:00:36.671Z,7.53
2023-04-07T05:03:26.445Z,8.10
2023-04-07T05:06:14.724Z,6.80
2023-04-07T05:09:02.997Z,6.47
2023-04-07T05:11:52.421Z,6.20
2023-04-07T05:14:40.575Z,7.30
2023-04-07T05:17:28.785Z,6.10
2023-04-07T05:20:17.556Z,5.07
2023-04-07T05:23:06.133Z,5.03
2023-04-07T05:25:54.493Z,4.70
2023-04-07T05:28:44.032Z,4.63
2023-04-07T05:31:32.257Z,4.47
2023-04-07T05:34:20.468Z,4.80
2023-04-07T05:37:08.738Z,4.20
2023-04-07T05:39:56.873Z,4.00
2023-04-07T05:42:45.056Z,4.00
2023-04-07T05:45:35.220Z,3.83
2023-04-07T05:48:23.461Z,3.93
2023-04-07T05:51:11.456Z,4.37
2023-04-07T05:54:03.125Z,4.57
2023-04-07T05:56:51.409Z,5.50
2023-04-07T05:59:39.557Z,5.07
2023-04-07T06:02:29.188Z,5.20
2023-04-07T06:05:18.154Z,5.30
2023-04-07T06:08:06.573Z,4.97
2023-04-07T06:10:54.854Z,4.83
2023-04-07T06:13:42.986Z,8.70
2023-04-07T06:16:31.295Z,9.40
2023-04-07T06:19:21.364Z,7.10
2023-04-07T06:22:09.598Z,6.67
2023-04-07T06:24:57.863Z,6.83
2023-04-07T06:27:46.288Z,6.27
2023-04-07T06:30:35.146Z,5.70
2023-04-07T06:33:25.587Z,5.07
2023-04-07T06:36:15.191Z,5.73
2023-04-07T06:39:03.342Z,5.03
2023-04-07T06:41:51.444Z,5.17
2023-04-07T06:44:39.462Z,4.80
2023-04-07T06:47:28.319Z,5.47
2023-04-07T06:50:20.718Z,4.90
2023-04-07T06:53:10.145Z,4.80
2023-04-07T06:56:05.501Z,4.77
2023-04-07T06:58:54.446Z,4.77
2023-04-07T07:01:43.841Z,4.70
2023-04-07T07:04:32.211Z,4.63
2023-04-07T07:07:20.744Z,4.10
2023-04-07T07:10:11.499Z,4.53
2023-04-07T07:12:59.686Z,4.20
2023-04-07T07:15:47.854Z,4.17
2023-04-07T07:18:36.939Z,4.00
2023-04-07T07:21:24.992Z,4.13
2023-04-07T07:24:13.193Z,3.87
2023-04-07T07:27:03.550Z,4.07
2023-04-07T07:29:51.618Z,4.63
2023-04-07T07:32:39.926Z,4.37
2023-04-07T07:35:28.354Z,4.40
2023-04-07T07:38:16.700Z,4.10
2023-04-07T07:41:04.776Z,3.80
2023-04-07T07:43:54.525Z,4.10
2023-04-07T07:46:42.684Z,4.43
2023-04-07T07:49:32.047Z,4.27
2023-04-07T07:52:20.758Z,3.57
2023-04-07T07:55:09.298Z,3.97
2023-04-07T07:57:57.606Z,4.00
2023-04-07T08:00:47.519Z,3.70
2023-04-07T08:03:36.023Z,3.50
2023-04-07T08:06:24.237Z,3.87
2023-04-07T08:09:12.396Z,3.90
2023-04-07T08:12:00.628Z,4.30
2023-04-07T08:14:50.018Z,4.23
2023-04-07T08:17:39.856Z,4.63
2023-04-07T08:20:28.608Z,4.33
2023-04-07T08:23:16.739Z,4.03
2023-04-07T08:26:04.990Z,4.20
2023-04-07T08:28:53.160Z,4.07
2023-04-07T08:31:41.523Z,4.40
2023-04-07T08:34:31.174Z,4.43
2023-04-07T08:37:19.540Z,4.17
2023-04-07T08:40:08.480Z,3.97
2023-04-07T08:42:58.979Z,3.53
2023-04-07T08:45:47.900Z,4.10
2023-04-07T08:48:39.071Z,4.10
2023-04-07T08:51:31.798Z,5.00
2023-04-07T08:54:22.246Z,6.23
2023-04-07T08:57:11.759Z,5.40
2023-04-07T09:00:05.435Z,6.03
2023-04-07T09:02:54.173Z,4.13
2023-04-07T09:05:42.616Z,4.33
2023-04-07T09:08:32.181Z,4.83
2023-04-07T09:11:20.509Z,4.20
2023-04-07T09:14:08.645Z,3.33
2023-04-07T09:16:57.166Z,4.00
2023-04-07T09:19:45.947Z,3.50
2023-04-07T09:22:39.935Z,5.60
2023-04-07T09:25:30.578Z,4.50
2023-04-07T09:28:18.726Z,3.43
2023-04-07T09:31:06.959Z,3.33
2023-04-07T09:33:55.705Z,3.77
2023-04-07T09:36:43.758Z,3.53
2023-04-07T09:39:32.014Z,3.00
2023-04-07T09:42:22.480Z,2.83
2023-04-07T09:45:13.135Z,3.00
2023-04-07T09:48:07.708Z,2.63
2023-04-07T09:51:07.124Z,2.73
2023-04-07T09:53:55.800Z,2.87
2023-04-07T09:56:43.958Z,2.73
2023-04-07T09:59:35.560Z,2.60
2023-04-07T10:02:24.211Z,2.40
2023-04-07T10:05:12.785Z,2.87
2023-04-07T10:08:02.377Z,2.27
2023-04-07T10:10:51.368Z,2.60
2023-04-07T10:13:41.473Z,2.40
2023-04-07T10:16:31.864Z,2.13
2023-04-07T10:19:20.836Z,2.57
2023-04-07T10:22:09.261Z,2.70
2023-04-07T10:25:00.306Z,3.10
2023-04-07T10:27:52.272Z,2.90
2023-04-07T10:30:41.402Z,3.30
2023-04-07T10:33:56.534Z,3.60
2023-04-07T10:37:14.233Z,3.00
2023-04-07T10:40:31.010Z,3.10
2023-04-07T10:43:39.628Z,3.10
2023-04-07T10:47:00.481Z,3.40
2023-04-07T10:50:19.550Z,3.07
2023-04-07T10:53:10.767Z,3.33
2023-04-07T10:55:59.903Z,2.90
2023-04-07T10:58:48.346Z,2.70
2023-04-07T11:01:36.571Z,2.80
2023-04-07T11:04:24.916Z,3.57
2023-04-07T11:07:16.368Z,3.40
2023-04-07T11:10:11.657Z,4.10
2023-04-07T11:13:01.590Z,3.63
2023-04-07T11:15:51.918Z,3.50
2023-04-07T11:18:41.554Z,4.20
2023-04-07T11:21:30.525Z,3.93
2023-04-07T11:27:15.801Z,2.60
2023-04-07T11:30:10.149Z,13.67
2023-04-07T11:32:58.884Z,7.30
2023-04-07T11:35:52.293Z,3.33
2023-04-07T11:38:40.796Z,3.10
2023-04-07T11:41:32.780Z,2.90
2023-04-07T11:44:22.272Z,2.73
2023-04-07T11:47:10.346Z,3.00
2023-04-07T11:49:58.552Z,2.60
2023-04-07T11:52:48.562Z,1.90
2023-04-07T11:55:36.968Z,2.07
2023-04-07T11:58:25.039Z,1.80
2023-04-07T12:01:14.831Z,1.70
2023-04-07T12:04:05.058Z,2.00
2023-04-07T12:06:53.388Z,2.10
2023-04-07T12:09:41.439Z,1.70
2023-04-07T12:12:33.457Z,1.53
2023-04-07T12:15:22.997Z,1.60
2023-04-07T12:18:18.258Z,1.63
2023-04-07T12:21:06.689Z,1.37
2023-04-07T12:23:55.006Z,1.53
2023-04-07T12:26:43.194Z,2.00
2023-04-07T12:29:31.274Z,1.70
2023-04-07T12:32:19.963Z,1.60
2023-04-07T12:35:09.894Z,1.50
2023-04-07T12:37:58.184Z,1.60
2023-04-07T12:40:46.750Z,1.60
2023-04-07T12:43:35.669Z,1.70
2023-04-07T12:46:24.096Z,1.60
2023-04-07T12:49:12.670Z,1.50
2023-04-07T12:52:02.111Z,1.43
2023-04-07T12:54:50.461Z,1.40
2023-04-07T12:57:39.091Z,1.40
2023-04-07T13:00:27.490Z,1.30
2023-04-07T13:03:15.882Z,1.27
2023-04-07T13:06:05.291Z,1.10
2023-04-07T13:08:55.437Z,1.50
2023-04-07T13:11:43.846Z,1.30
2023-04-07T13:14:32.220Z,1.43
2023-04-07T13:17:20.533Z,1.10
2023-04-07T13:20:09.606Z,1.20
2023-04-07T13:23:07.671Z,1.40
2023-04-07T13:25:59.527Z,1.43
2023-04-07T13:28:47.995Z,1.43
2023-04-07T13:31:36.456Z,1.37
2023-04-07T13:34:24.570Z,1.40
2023-04-07T13:37:12.829Z,1.30
2023-04-07T13:40:01.368Z,1.30
2023-04-07T13:42:51.097Z,1.20
2023-04-07T13:45:39.313Z,1.40
2023-04-07T13:48:27.746Z,1.40
2023-04-07T13:51:16.428Z,1.20
2023-04-07T13:54:04.757Z,1.20
2023-04-07T13:56:53.074Z,1.33
2023-04-07T13:59:42.730Z,1.60
2023-04-07T14:02:32.443Z,1.40
2023-04-07T14:05:20.596Z,1.90
2023-04-07T14:08:08.698Z,1.60
2023-04-07T14:10:57.086Z,1.30
2023-04-07T14:13:45.414Z,1.40
2023-04-07T14:16:34.910Z,1.60
2023-04-07T14:19:24.176Z,1.47
2023-04-07T14:22:12.261Z,1.37
2023-04-07T14:25:00.641Z,1.43
2023-04-07T14:27:49.128Z,2.63
2023-04-07T14:30:39.052Z,1.53
2023-04-07T14:33:28.630Z,1.50
2023-04-07T14:36:17.776Z,1.30
2023-04-07T14:39:06.132Z,1.60
2023-04-07T14:41:55.176Z,1.30
2023-04-07T14:44:43.836Z,1.57
2023-04-07T14:47:32.128Z,1.50
2023-04-07T14:50:22.040Z,1.30
2023-04-07T14:53:10.345Z,1.20
2023-04-07T14:55:58.512Z,1.00
2023-04-07T14:58:46.884Z,1.30
2023-04-07T15:01:35.309Z,1.50
2023-04-07T15:04:23.648Z,1.40
2023-04-07T15:07:13.528Z,1.23
2023-04-07T15:10:02.045Z,1.03
2023-04-07T15:12:50.555Z,0.90
2023-04-07T15:15:38.705Z,1.27
2023-04-07T15:18:26.947Z,1.30
2023-04-07T15:21:16.892Z,1.50
2023-04-07T15:24:06.723Z,1.07
2023-04-07T15:26:54.928Z,1.00
2023-04-07T15:29:43.301Z,1.10
2023-04-07T15:32:32.651Z,0.97
2023-04-07T15:35:21.242Z,0.90
2023-04-07T15:38:09.493Z,0.87
2023-04-07T15:40:59.360Z,0.80
2023-04-07T15:43:48.074Z,1.10
2023-04-07T15:46:37.006Z,1.00
2023-04-07T15:49:26.220Z,1.03
2023-04-07T15:52:15.628Z,0.90
2023-04-07T15:55:04.002Z,0.90
2023-04-07T15:57:53.672Z,0.90
2023-04-07T16:00:42.306Z,1.20
2023-04-07T16:03:32.344Z,1.10
2023-04-07T16:06:20.957Z,1.00
2023-04-07T16:09:09.759Z,1.30
2023-04-07T16:11:58.171Z,1.30
2023-04-07T16:14:47.915Z,1.17
2023-04-07T16:17:37.587Z,1.00
2023-04-07T16:20:26.155Z,1.00
2023-04-07T16:23:14.634Z,1.13
2023-04-07T16:26:03.026Z,0.97
2023-04-07T16:28:51.076Z,1.30
2023-04-07T16:31:41.244Z,1.00
2023-04-07T16:34:29.354Z,1.00
2023-04-07T16:37:17.538Z,0.90
2023-04-07T16:40:06.740Z,0.97
2023-04-07T16:42:54.886Z,0.80
2023-04-07T16:45:43.039Z,0.80
2023-04-07T16:48:32.668Z,0.80
2023-04-07T16:51:21.415Z,0.90
2023-04-07T16:54:09.576Z,0.90
2023-04-07T16:56:57.975Z,0.60
2023-04-07T16:59:46.505Z,0.77
2023-04-07T17:02:35.277Z,0.90
2023-04-07T17:05:25.085Z,0.70
2023-04-07T17:08:13.314Z,1.20
2023-04-07T17:11:01.564Z,0.87
2023-04-07T17:13:50.036Z,1.13
2023-04-07T17:16:38.456Z,0.80
2023-04-07T17:19:27.166Z,0.60
2023-04-07T17:22:16.798Z,0.73
2023-04-07T17:25:06.847Z,1.10
2023-04-07T17:27:55.306Z,0.83
2023-04-07T17:30:43.538Z,0.93
2023-04-07T17:33:32.454Z,0.80
2023-04-07T17:36:20.676Z,0.87
2023-04-07T17:39:10.401Z,1.17
2023-04-07T17:41:58.635Z,1.20
2023-04-07T17:44:47.189Z,1.10
2023-04-07T17:47:36.212Z,1.23
2023-04-07T17:50:24.526Z,1.07
2023-04-07T17:53:12.894Z,1.10
2023-04-07T17:56:02.976Z,1.10
2023-04-07T17:58:51.468Z,1.00
2023-04-07T18:01:39.923Z,1.23
2023-04-07T18:04:28.855Z,1.47
2023-04-07T18:07:17.908Z,1.50
2023-04-07T18:10:07.171Z,1.53
2023-04-07T18:12:57.098Z,1.30
2023-04-07T18:15:45.425Z,1.40
2023-04-07T18:18:33.523Z,1.30
2023-04-07T18:21:21.773Z,1.47
2023-04-07T18:24:10.148Z,1.50
2023-04-07T18:26:58.327Z,1.53
2023-04-07T18:29:47.760Z,1.50
2023-04-07T18:32:36.167Z,1.53
2023-04-07T18:35:25.531Z,1.57
2023-04-07T18:38:13.826Z,1.73
2023-04-07T18:41:02.033Z,1.60
2023-04-07T18:43:50.354Z,1.30
2023-04-07T18:46:40.344Z,1.60
2023-04-07T18:49:29.148Z,1.50
2023-04-07T18:52:17.413Z,1.30
2023-04-07T18:55:06.610Z,1.83
2023-04-07T18:57:55.100Z,1.80
2023-04-07T19:00:43.946Z,2.00
2023-04-07T19:03:33.594Z,2.17
2023-04-07T19:06:21.804Z,2.23
2023-04-07T19:09:10.347Z,2.10
2023-04-07T19:11:58.672Z,1.80
2023-04-07T19:14:47.081Z,2.90
2023-04-07T19:17:36.170Z,2.60
2023-04-07T19:20:25.748Z,2.73
2023-04-07T19:23:13.900Z,2.80
2023-04-07T19:26:02.129Z,3.30
2023-04-07T19:28:50.482Z,3.03
2023-04-07T19:31:39.133Z,2.97
2023-04-07T19:34:27.389Z,3.10
2023-04-07T19:37:18.080Z,3.20
2023-04-07T19:40:07.451Z,3.40
2023-04-07T19:42:57.216Z,3.47
2023-04-07T19:45:46.776Z,3.30
2023-04-07T19:48:34.869Z,3.80
2023-04-07T19:51:22.931Z,3.90
2023-04-07T19:54:12.505Z,4.30
2023-04-07T19:57:01.728Z,4.00
2023-04-07T19:59:49.744Z,4.20
2023-04-07T20:02:38.177Z,4.17
2023-04-07T20:05:26.363Z,4.27
2023-04-07T20:08:14.565Z,3.80
2023-04-07T20:11:04.002Z,4.10
2023-04-07T20:13:52.150Z,4.23
2023-04-07T20:16:40.266Z,4.50
2023-04-07T20:19:28.889Z,5.27
2023-04-07T20:22:16.908Z,5.63
2023-04-07T20:25:05.605Z,5.60
2023-04-07T20:27:55.055Z,6.30
2023-04-07T20:30:43.202Z,5.40
2023-04-07T20:33:31.468Z,6.30
2023-04-07T20:36:19.677Z,6.27
2023-04-07T20:39:07.820Z,7.07
2023-04-07T20:41:57.276Z,6.73
2023-04-07T20:44:49.236Z,6.87
2023-04-07T20:47:37.338Z,7.40
2023-04-07T20:50:25.800Z,7.47
2023-04-07T20:53:13.860Z,7.07
2023-04-07T20:56:02.924Z,7.50
2023-04-07T20:58:51.417Z,7.00
2023-04-07T21:01:41.103Z,6.80
2023-04-07T21:04:29.295Z,7.30
2023-04-07T21:07:17.391Z,7.40
2023-04-07T21:10:06.299Z,7.50
2023-04-07T21:12:54.615Z,7.40
2023-04-07T21:15:43.902Z,7.23
2023-04-07T21:18:34.654Z,7.30
2023-04-07T21:21:22.737Z,7.10
2023-04-07T21:24:10.820Z,8.03
2023-04-07T21:26:59.178Z,7.60
2023-04-07T21:29:47.294Z,7.60
2023-04-07T21:32:36.641Z,7.47
2023-04-07T21:35:27.855Z,8.00
2023-04-07T21:38:16.199Z,7.20
2023-04-07T21:41:04.209Z,7.23
2023-04-07T21:43:52.331Z,7.27
2023-04-07T21:46:41.091Z,7.30
2023-04-07T21:49:29.317Z,7.53
2023-04-07T21:52:18.925Z,6.93
2023-04-07T21:55:08.611Z,7.37
2023-04-07T21:57:57.497Z,7.33
2023-04-07T22:00:48.806Z,7.70
2023-04-07T22:03:36.924Z,7.83
2023-04-07T22:06:25.070Z,7.40
2023-04-07T22:09:14.779Z,7.33
2023-04-07T22:12:02.872Z,7.73
2023-04-07T22:14:51.220Z,8.27
2023-04-07T22:17:40.141Z,8.00
2023-04-07T22:20:28.422Z,8.00
2023-04-07T22:23:16.516Z,7.63
2023-04-07T22:26:05.942Z,7.80
2023-04-07T22:28:54.042Z,7.80
2023-04-07T22:31:42.128Z,7.87
2023-04-07T22:34:30.236Z,7.50
2023-04-07T22:37:18.429Z,7.70
2023-04-07T22:40:07.649Z,7.60
2023-04-07T22:42:57.140Z,7.50
2023-04-07T22:45:45.356Z,7.33
2023-04-07T22:48:33.426Z,7.90
2023-04-07T22:51:22.066Z,7.77
2023-04-07T22:54:10.277Z,8.10
2023-04-07T22:56:58.332Z,7.40
2023-04-07T22:59:47.714Z,8.10
2023-04-07T23:02:36.675Z,8.60
2023-04-07T23:05:25.160Z,8.13
2023-04-07T23:08:13.408Z,7.83
2023-04-07T23:11:01.412Z,8.17
2023-04-07T23:13:49.533Z,7.23
2023-04-07T23:16:39.299Z,7.40
2023-04-07T23:19:27.677Z,7.50
2023-04-07T23:22:15.768Z,7.60
2023-04-07T23:25:04.938Z,7.80
2023-04-07T23:27:53.014Z,7.00
2023-04-07T23:30:41.346Z,8.20
2023-04-07T23:33:31.601Z,7.63
2023-04-07T23:36:19.754Z,8.10
2023-04-07T23:39:07.850Z,7.33
2023-04-07T23:41:56.204Z,8.33
2023-04-07T23:44:44.427Z,8.00
2023-04-07T23:47:32.509Z,8.17
2023-04-07T23:50:22.126Z,7.97
2023-04-07T23:53:10.371Z,7.40
2023-04-07T23:55:58.453Z,8.67
2023-04-07T23:58:46.706Z,8.37
